Terminal Aerodrome Forecast
Issued by NWS Billings, MT

Home | Current Version | Previous Version | Text Only | Print | Product List | Glossary Off
Versions: 1 2 3 4 5 6 7 8 9 10 11 12 13 14 15 16 17 18 19 20 21 22 23 24 25 26 27 28

000
FTUS45 KBYZ 282320
TAFMLS
TAF
KMLS 282320Z 2900/2924 04023KT 1SM -SN BR FEW005 OVC015
      TEMPO 2900/2903 04011G20KT 1/2SM SN BLSN BKN010
     FM290300 04018G24KT 1SM -SN BLSN OVC020
     FM291100 02013KT 5SM -SN OVC005
     FM291500 01013KT P6SM BKN020=

USA.gov is the U.S. government's official web portal to all federal, state and local government web resources and services.